SPTN/TCQ METAR and TAF weather

Enter ICAO airport designator
Station Type Date Time Source
SPTN METAR 2018/12/13 21:00 UTC NOAA

SPTN 132100Z 23010KT 9999 BKN033 23/15 Q1014 RMK PP000


Station Type Date Time Source
SPTN Decoded METAR 2018/12/13 21:00 UTC NOAA

Tacna, Peru (SPTN) 18-04S 070-18W 469M
Dec 13, 2018 - 04:00 PM EST / 2018.12.13 2100 UTC
Wind: from the SW (230 degrees) at 12 MPH (10 KT):0
Visibility: greater than 7 mile(s):0
Sky conditions: mostly cloudy
Temperature: 73 F (23 C)
Dew Point: 59 F (15 C)
Relative Humidity: 60%
Pressure (altimeter): 29.94 in. Hg (1014 hPa)
ob: SPTN 132100Z 23010KT 9999 BKN033 23/15 Q1014 RMK PP000
cycle: 21

Station Type Date Time Source
SPTN TAF 2018/12/13 18:33 UTC NOAA

TAF SPTN 131700Z 1318/1418 23010KT CAVOK TX26/1319Z TN16/1411Z
FM140100 21005KT 9999 BKN025
FM141400 35005KT 9999 SCT040


Example: see airport list